Startpagina
METAR-TAF:

METAR-TAF

Vliegvelden :

Khartoem, Soedan

Luchthaven van Khartoem

breedte: 15-36N, lengte: 032-33E, hoogte: 382 m

Actueel weer

Dit bericht is 39 minuten geleden gemaakt, om 12:00 UTC
Wind 8 kt uit het noordwesten
Temperatuur 32°C
Vochtigheid 7%
Druk 1013 hPa
Zicht 10 km of meer
geen wolken onder 1500 m en geen cumulonimbus

METAR: HSSS 271200Z 31008KT CAVOK 32/M09 Q1013 NOSIG

Tijdstip: 15:39 (12:39 UTC)

Verwachting

Dit bericht is 1 uur en het 39 minuten geleden gemaakt, om 11:00 UTC
Verwachting geldig van 27 om 12 UTC tot 28 om 18 UTC
Wind 10 kt uit het noorden met uitschieters tot 20 kt
Zicht 10 km of meer
geen wolken onder 1500 m en geen cumulonimbus

TAF: HSSS 271100Z 2712/2818 36010G20KT CAVOK

Waarnemingen en weersverwachtingen van meer dan 4000 vliegvelden (METAR en TAF).

De beschikbare stations zijn de gele en rode punten op de kaart.

Ga met uw muis naar het station om de naam te zien.

Klik dan om waarnemingen en weersverwachtingen te zien.

kaart wijzigen: klik op de groene knoppen met een zwart kruis om in te zoomen, op de groene knop met een streepje om uit te zoomen of op de groene pijlen voor aangrenzende kaarten.


METAR-TAF: